sensor_id;sensor_type;location;lat;lon;timestamp;pressure;altitude;pressure_sealevel;temperature;humidity
45040;BME280;30778;53.574;7.770;2023-03-20T00:00:46;101734.81;;;5.00;57.00
45040;BME280;30778;53.574;7.770;2023-03-20T00:03:12;101736.63;;;4.35;58.95
45040;BME280;30778;53.574;7.770;2023-03-20T00:05:38;101725.38;;;4.64;58.12
45040;BME280;30778;53.574;7.770;2023-03-20T00:08:05;101736.63;;;4.55;58.58
45040;BME280;30778;53.574;7.770;2023-03-20T00:10:36;101726.22;;;4.81;57.31
45040;BME280;30778;53.574;7.770;2023-03-20T00:13:03;101728.66;;;5.34;56.38
45040;BME280;30778;53.574;7.770;2023-03-20T00:15:36;101724.50;;;4.93;57.09
45040;BME280;30778;53.574;7.770;2023-03-20T00:18:03;101713.22;;;5.11;56.80
45040;BME280;30778;53.574;7.770;2023-03-20T00:20:31;101707.91;;;5.32;56.25
45040;BME280;30778;53.574;7.770;2023-03-20T00:22:57;101712.19;;;5.47;55.75
45040;BME280;30778;53.574;7.770;2023-03-20T00:25:23;101721.00;;;5.00;56.81
45040;BME280;30778;53.574;7.770;2023-03-20T00:27:50;101727.88;;;5.13;56.84
45040;BME280;30778;53.574;7.770;2023-03-20T00:30:28;101737.41;;;5.02;57.36
45040;BME280;30778;53.574;7.770;2023-03-20T00:32:56;101744.31;;;5.06;56.95
45040;BME280;30778;53.574;7.770;2023-03-20T00:35:27;101751.16;;;5.30;56.56
45040;BME280;30778;53.574;7.770;2023-03-20T00:37:55;101753.69;;;5.44;56.20
45040;BME280;30778;53.574;7.770;2023-03-20T00:40:24;101758.16;;;5.00;57.17
45040;BME280;30778;53.574;7.770;2023-03-20T00:42:57;101765.00;;;5.24;56.80
45040;BME280;30778;53.574;7.770;2023-03-20T00:45:23;101764.19;;;5.07;57.29
45040;BME280;30778;53.574;7.770;2023-03-20T00:47:49;101768.53;;;4.97;57.39
45040;BME280;30778;53.574;7.770;2023-03-20T00:50:21;101764.94;;;5.32;56.83
45040;BME280;30778;53.574;7.770;2023-03-20T00:52:48;101764.13;;;5.22;56.41
45040;BME280;30778;53.574;7.770;2023-03-20T00:55:14;101764.19;;;5.01;57.46
45040;BME280;30778;53.574;7.770;2023-03-20T00:57:47;101765.00;;;5.26;57.02
45040;BME280;30778;53.574;7.770;2023-03-20T01:00:23;101752.03;;;5.18;56.79
45040;BME280;30778;53.574;7.770;2023-03-20T01:02:54;101750.16;;;5.62;55.83
45040;BME280;30778;53.574;7.770;2023-03-20T01:05:23;101758.94;;;5.29;56.72
45040;BME280;30778;53.574;7.770;2023-03-20T01:07:52;101763.19;;;5.40;56.41
45040;BME280;30778;53.574;7.770;2023-03-20T01:10:18;101769.31;;;5.16;57.27
45040;BME280;30778;53.574;7.770;2023-03-20T01:12:45;101764.00;;;5.56;56.35
45040;BME280;30778;53.574;7.770;2023-03-20T01:15:20;101765.91;;;5.11;57.28
45040;BME280;30778;53.574;7.770;2023-03-20T01:17:46;101764.94;;;5.32;56.78
45040;BME280;30778;53.574;7.770;2023-03-20T01:20:22;101765.00;;;5.18;57.31
45040;BME280;30778;53.574;7.770;2023-03-20T01:22:48;101756.38;;;5.18;56.92
45040;BME280;30778;53.574;7.770;2023-03-20T01:25:14;101758.81;;;5.53;56.13
45040;BME280;30778;53.574;7.770;2023-03-20T01:27:45;101764.91;;;5.43;56.10
45040;BME280;30778;53.574;7.770;2023-03-20T01:30:31;101757.28;;;5.00;57.57
45040;BME280;30778;53.574;7.770;2023-03-20T01:32:59;101755.59;;;4.68;58.10
45040;BME280;30778;53.574;7.770;2023-03-20T01:35:27;101755.56;;;4.87;57.51
45040;BME280;30778;53.574;7.770;2023-03-20T01:37:55;101759.06;;;4.70;58.32
45040;BME280;30778;53.574;7.770;2023-03-20T01:40:36;101765.09;;;4.46;58.70
45040;BME280;30778;53.574;7.770;2023-03-20T01:43:13;101760.81;;;4.34;58.74
45040;BME280;30778;53.574;7.770;2023-03-20T01:53:53;101753.00;;;4.99;57.60
45040;BME280;30778;53.574;7.770;2023-03-20T01:56:20;101756.34;;;5.25;56.96
45040;BME280;30778;53.574;7.770;2023-03-20T01:58:55;101755.56;;;5.02;57.66
45040;BME280;30778;53.574;7.770;2023-03-20T02:01:23;101747.81;;;4.91;57.52
45040;BME280;30778;53.574;7.770;2023-03-20T02:03:50;101744.31;;;5.06;57.42
45040;BME280;30778;53.574;7.770;2023-03-20T02:06:37;101733.03;;;5.21;57.23
45040;BME280;30778;53.574;7.770;2023-03-20T02:09:14;101728.78;;;4.84;58.31
45040;BME280;30778;53.574;7.770;2023-03-20T02:11:44;101728.81;;;4.89;57.54
45040;BME280;30778;53.574;7.770;2023-03-20T02:14:10;101720.16;;;4.96;57.70
45040;BME280;30778;53.574;7.770;2023-03-20T02:17:08;101710.69;;;4.77;58.33
45040;BME280;30778;53.574;7.770;2023-03-20T02:20:00;101700.28;;;5.04;57.60
45040;BME280;30778;53.574;7.770;2023-03-20T02:22:58;101703.75;;;4.87;58.14
45040;BME280;30778;53.574;7.770;2023-03-20T02:25:55;101709.00;;;4.59;58.25
45040;BME280;30778;53.574;7.770;2023-03-20T02:28:56;101707.22;;;4.72;58.82
45040;BME280;30778;53.574;7.770;2023-03-20T02:37:24;101703.66;;;5.20;57.31
45040;BME280;30778;53.574;7.770;2023-03-20T02:45:46;101689.16;;;4.59;58.27
45040;BME280;30778;53.574;7.770;2023-03-20T02:48:23;101686.50;;;4.92;57.86
45040;BME280;30778;53.574;7.770;2023-03-20T02:56:47;101679.59;;;4.88;57.22
45040;BME280;30778;53.574;7.770;2023-03-20T02:59:42;101681.00;;;5.56;56.18
45040;BME280;30778;53.574;7.770;2023-03-20T03:02:15;101676.66;;;5.57;55.68
45040;BME280;30778;53.574;7.770;2023-03-20T03:04:53;101678.63;;;5.12;57.34
45040;BME280;30778;53.574;7.770;2023-03-20T03:07:23;101672.38;;;5.54;56.05
45040;BME280;30778;53.574;7.770;2023-03-20T03:10:14;101680.13;;;5.62;55.97
45040;BME280;30778;53.574;7.770;2023-03-20T03:12:45;101676.63;;;5.63;55.85
45040;BME280;30778;53.574;7.770;2023-03-20T03:15:25;101663.63;;;5.69;55.39
45040;BME280;30778;53.574;7.770;2023-03-20T03:17:53;101664.75;;;5.33;55.92
45040;BME280;30778;53.574;7.770;2023-03-20T03:20:30;101667.28;;;5.39;56.24
45040;BME280;30778;53.574;7.770;2023-03-20T03:23:00;101663.75;;;5.49;55.52
45040;BME280;30778;53.574;7.770;2023-03-20T03:25:29;101660.59;;;4.79;56.92
45040;BME280;30778;53.574;7.770;2023-03-20T03:28:07;101661.19;;;5.48;55.87
45040;BME280;30778;53.574;7.770;2023-03-20T03:30:38;101655.06;;;5.59;55.42
45040;BME280;30778;53.574;7.770;2023-03-20T03:33:13;101656.78;;;5.62;55.30
45040;BME280;30778;53.574;7.770;2023-03-20T03:35:43;101661.19;;;5.51;55.48
45040;BME280;30778;53.574;7.770;2023-03-20T03:41:12;101653.38;;;5.52;55.12
45040;BME280;30778;53.574;7.770;2023-03-20T03:43:49;101641.53;;;5.08;56.46
45040;BME280;30778;53.574;7.770;2023-03-20T03:46:35;101643.97;;;5.34;56.12
45040;BME280;30778;53.574;7.770;2023-03-20T03:49:03;101643.13;;;5.28;55.29
45040;BME280;30778;53.574;7.770;2023-03-20T03:51:32;101633.50;;;5.50;55.25
45040;BME280;30778;53.574;7.770;2023-03-20T03:54:16;101637.88;;;5.43;55.91
45040;BME280;30778;53.574;7.770;2023-03-20T03:56:49;101640.41;;;5.55;55.17
45040;BME280;30778;53.574;7.770;2023-03-20T03:59:23;101640.38;;;5.57;55.30
45040;BME280;30778;53.574;7.770;2023-03-20T04:01:51;101638.72;;;5.46;54.98
45040;BME280;30778;53.574;7.770;2023-03-20T04:04:17;101632.09;;;4.86;57.09
45040;BME280;30778;53.574;7.770;2023-03-20T04:06:44;101635.19;;;5.58;55.28
45040;BME280;30778;53.574;7.770;2023-03-20T04:09:10;101633.44;;;5.59;55.02
45040;BME280;30778;53.574;7.770;2023-03-20T04:11:35;101632.59;;;5.60;55.06
45040;BME280;30778;53.574;7.770;2023-03-20T04:14:01;101630.91;;;5.51;55.54
45040;BME280;30778;53.574;7.770;2023-03-20T04:16:27;101627.44;;;5.52;54.57
45040;BME280;30778;53.574;7.770;2023-03-20T04:18:53;101632.66;;;5.49;55.33
45040;BME280;30778;53.574;7.770;2023-03-20T04:21:21;101629.25;;;5.44;55.34
45040;BME280;30778;53.574;7.770;2023-03-20T04:23:47;101624.13;;;5.32;55.74
45040;BME280;30778;53.574;7.770;2023-03-20T04:26:13;101631.84;;;5.44;55.60
45040;BME280;30778;53.574;7.770;2023-03-20T04:28:38;101620.88;;;4.93;56.15
45040;BME280;30778;53.574;7.770;2023-03-20T04:31:20;101622.38;;;5.32;55.95
45040;BME280;30778;53.574;7.770;2023-03-20T04:34:04;101628.69;;;4.67;57.34
45040;BME280;30778;53.574;7.770;2023-03-20T04:36:33;101617.41;;;4.83;57.27
45040;BME280;30778;53.574;7.770;2023-03-20T04:38:58;101622.50;;;5.17;56.31
45040;BME280;30778;53.574;7.770;2023-03-20T04:41:24;101623.44;;;4.85;57.06
45040;BME280;30778;53.574;7.770;2023-03-20T04:43:53;101620.81;;;5.07;56.09
45040;BME280;30778;53.574;7.770;2023-03-20T04:46:19;101625.78;;;5.42;55.38
45040;BME280;30778;53.574;7.770;2023-03-20T04:48:45;101628.34;;;5.46;55.30
45040;BME280;30778;53.574;7.770;2023-03-20T04:51:11;101622.41;;;5.31;55.59
45040;BME280;30778;53.574;7.770;2023-03-20T04:54:02;101625.06;;;5.21;55.74
45040;BME280;30778;53.574;7.770;2023-03-20T04:56:29;101626.00;;;5.02;56.71
45040;BME280;30778;53.574;7.770;2023-03-20T04:59:08;101620.00;;;4.84;57.56
45040;BME280;30778;53.574;7.770;2023-03-20T05:01:34;101619.88;;;5.20;55.85
45040;BME280;30778;53.574;7.770;2023-03-20T05:03:59;101621.63;;;5.13;56.65
45040;BME280;30778;53.574;7.770;2023-03-20T05:06:29;101623.28;;;5.25;56.03
45040;BME280;30778;53.574;7.770;2023-03-20T05:08:59;101628.66;;;4.80;57.16
45040;BME280;30778;53.574;7.770;2023-03-20T05:11:27;101619.91;;;5.09;56.68
45040;BME280;30778;53.574;7.770;2023-03-20T05:14:12;101632.81;;;5.23;56.55
45040;BME280;30778;53.574;7.770;2023-03-20T05:16:46;101634.66;;;4.98;57.20
45040;BME280;30778;53.574;7.770;2023-03-20T05:19:52;101627.59;;;5.28;56.11
45040;BME280;30778;53.574;7.770;2023-03-20T05:22:41;101622.53;;;5.03;56.70
45040;BME280;30778;53.574;7.770;2023-03-20T05:25:16;101629.28;;;5.36;56.43
45040;BME280;30778;53.574;7.770;2023-03-20T05:27:58;101629.44;;;5.09;57.22
45040;BME280;30778;53.574;7.770;2023-03-20T05:30:44;101628.38;;;5.39;55.65
45040;BME280;30778;53.574;7.770;2023-03-20T05:33:32;101629.50;;;4.82;57.99
45040;BME280;30778;53.574;7.770;2023-03-20T05:36:36;101631.13;;;5.16;57.14
45040;BME280;30778;53.574;7.770;2023-03-20T05:39:21;101639.63;;;5.38;56.33
45040;BME280;30778;53.574;7.770;2023-03-20T05:42:02;101640.53;;;5.35;56.62
45040;BME280;30778;53.574;7.770;2023-03-20T05:44:45;101636.25;;;5.27;56.53
45040;BME280;30778;53.574;7.770;2023-03-20T05:47:20;101641.31;;;5.48;56.16
45040;BME280;30778;53.574;7.770;2023-03-20T05:50:16;101644.00;;;5.30;56.63
45040;BME280;30778;53.574;7.770;2023-03-20T05:52:47;101642.09;;;5.56;56.09
45040;BME280;30778;53.574;7.770;2023-03-20T05:55:20;101649.97;;;5.44;56.60
45040;BME280;30778;53.574;7.770;2023-03-20T05:58:05;101653.41;;;5.49;56.10
45040;BME280;30778;53.574;7.770;2023-03-20T06:00:57;101648.19;;;5.52;56.00
45040;BME280;30778;53.574;7.770;2023-03-20T06:03:41;101643.94;;;5.40;56.25
45040;BME280;30778;53.574;7.770;2023-03-20T06:06:12;101644.94;;;5.16;56.90
45040;BME280;30778;53.574;7.770;2023-03-20T06:08:39;101644.84;;;5.35;56.62
45040;BME280;30778;53.574;7.770;2023-03-20T06:11:05;101646.53;;;5.39;56.58
45040;BME280;30778;53.574;7.770;2023-03-20T06:13:34;101650.13;;;5.18;57.15
45040;BME280;30778;53.574;7.770;2023-03-20T06:16:00;101651.47;;;5.76;55.61
45040;BME280;30778;53.574;7.770;2023-03-20T06:18:26;101649.97;;;5.41;56.61
45040;BME280;30778;53.574;7.770;2023-03-20T06:20:55;101650.53;;;5.87;55.31
45040;BME280;30778;53.574;7.770;2023-03-20T06:23:21;101645.38;;;5.86;54.96
45040;BME280;30778;53.574;7.770;2023-03-20T06:25:47;101644.66;;;5.62;55.93
45040;BME280;30778;53.574;7.770;2023-03-20T06:28:13;101650.84;;;5.46;55.66
45040;BME280;30778;53.574;7.770;2023-03-20T06:30:39;101653.38;;;5.55;56.33
45040;BME280;30778;53.574;7.770;2023-03-20T06:33:12;101655.06;;;5.56;56.48
45040;BME280;30778;53.574;7.770;2023-03-20T06:35:52;101659.19;;;5.86;55.40
45040;BME280;30778;53.574;7.770;2023-03-20T06:38:19;101656.72;;;5.70;55.18
45040;BME280;30778;53.574;7.770;2023-03-20T06:40:45;101651.38;;;5.90;55.28
45040;BME280;30778;53.574;7.770;2023-03-20T06:43:15;101660.06;;;5.87;54.57
45040;BME280;30778;53.574;7.770;2023-03-20T06:45:47;101666.97;;;5.83;55.27
45040;BME280;30778;53.574;7.770;2023-03-20T06:48:20;101659.97;;;5.96;54.56
45040;BME280;30778;53.574;7.770;2023-03-20T06:50:49;101662.00;;;5.54;56.16
45040;BME280;30778;53.574;7.770;2023-03-20T06:53:17;101664.22;;;6.05;54.79
45040;BME280;30778;53.574;7.770;2023-03-20T06:56:03;101667.19;;;5.56;55.63
45040;BME280;30778;53.574;7.770;2023-03-20T06:58:29;101665.28;;;5.84;54.66
45040;BME280;30778;53.574;7.770;2023-03-20T07:00:55;101675.81;;;5.58;55.12
45040;BME280;30778;53.574;7.770;2023-03-20T07:03:22;101671.50;;;5.61;55.86
45040;BME280;30778;53.574;7.770;2023-03-20T07:05:48;101669.59;;;5.82;54.27
45040;BME280;30778;53.574;7.770;2023-03-20T07:08:16;101673.25;;;5.55;55.54
45040;BME280;30778;53.574;7.770;2023-03-20T07:10:41;101679.47;;;5.18;56.11
45040;BME280;30778;53.574;7.770;2023-03-20T07:13:07;101683.44;;;5.82;54.62
45040;BME280;30778;53.574;7.770;2023-03-20T07:15:37;101690.28;;;5.93;54.07
45040;BME280;30778;53.574;7.770;2023-03-20T07:18:04;101681.50;;;6.09;53.63
45040;BME280;30778;53.574;7.770;2023-03-20T07:20:31;101683.50;;;5.72;54.11
45040;BME280;30778;53.574;7.770;2023-03-20T07:22:57;101694.41;;;6.18;53.52
45040;BME280;30778;53.574;7.770;2023-03-20T07:25:25;101694.13;;;5.29;55.40
45040;BME280;30778;53.574;7.770;2023-03-20T07:27:51;101689.50;;;5.77;53.96
45040;BME280;30778;53.574;7.770;2023-03-20T07:30:21;101690.25;;;5.94;53.53
45040;BME280;30778;53.574;7.770;2023-03-20T07:32:47;101694.78;;;5.64;53.96
45040;BME280;30778;53.574;7.770;2023-03-20T07:35:14;101686.59;;;6.18;52.83
45040;BME280;30778;53.574;7.770;2023-03-20T07:37:41;101684.09;;;6.07;53.25
45040;BME280;30778;53.574;7.770;2023-03-20T07:40:08;101684.91;;;6.14;52.78
45040;BME280;30778;53.574;7.770;2023-03-20T07:42:44;101683.31;;;5.95;53.35
45040;BME280;30778;53.574;7.770;2023-03-20T07:45:13;101683.22;;;6.12;52.86
45040;BME280;30778;53.574;7.770;2023-03-20T07:47:44;101687.59;;;6.03;53.26
45040;BME280;30778;53.574;7.770;2023-03-20T07:50:11;101696.28;;;5.98;53.20
45040;BME280;30778;53.574;7.770;2023-03-20T07:52:36;101692.69;;;6.13;52.86
45040;BME280;30778;53.574;7.770;2023-03-20T07:55:02;101697.97;;;6.03;53.34
45040;BME280;30778;53.574;7.770;2023-03-20T07:57:27;101687.50;;;6.13;52.68
45040;BME280;30778;53.574;7.770;2023-03-20T07:59:55;101700.75;;;5.80;53.59
45040;BME280;30778;53.574;7.770;2023-03-20T08:02:20;101696.47;;;5.72;53.64
45040;BME280;30778;53.574;7.770;2023-03-20T08:04:46;101702.84;;;6.43;52.11
45040;BME280;30778;53.574;7.770;2023-03-20T08:07:11;101697.69;;;6.40;51.77
45040;BME280;30778;53.574;7.770;2023-03-20T08:09:37;101699.75;;;6.00;52.44
45040;BME280;30778;53.574;7.770;2023-03-20T08:12:04;101698.50;;;6.45;51.60
45040;BME280;30778;53.574;7.770;2023-03-20T08:14:30;101697.84;;;6.22;52.05
45040;BME280;30778;53.574;7.770;2023-03-20T08:16:55;101709.88;;;6.35;52.00
45040;BME280;30778;53.574;7.770;2023-03-20T08:19:21;101694.25;;;6.38;51.18
45040;BME280;30778;53.574;7.770;2023-03-20T08:21:47;101698.75;;;6.15;51.85
45040;BME280;30778;53.574;7.770;2023-03-20T08:24:14;101703.06;;;6.16;52.35
45040;BME280;30778;53.574;7.770;2023-03-20T08:26:39;101704.69;;;6.27;51.68
45040;BME280;30778;53.574;7.770;2023-03-20T08:29:05;101707.47;;;6.06;52.04
45040;BME280;30778;53.574;7.770;2023-03-20T08:31:31;101703.16;;;6.06;51.31
45040;BME280;30778;53.574;7.770;2023-03-20T08:33:57;101698.78;;;6.12;51.65
45040;BME280;30778;53.574;7.770;2023-03-20T08:36:22;101699.53;;;6.23;51.39
45040;BME280;30778;53.574;7.770;2023-03-20T08:38:48;101702.13;;;6.23;51.07
45040;BME280;30778;53.574;7.770;2023-03-20T08:41:15;101705.94;;;6.81;49.72
45040;BME280;30778;53.574;7.770;2023-03-20T08:43:41;101701.69;;;6.74;49.88
45040;BME280;30778;53.574;7.770;2023-03-20T08:46:06;101701.16;;;6.39;50.06
45040;BME280;30778;53.574;7.770;2023-03-20T08:48:32;101701.50;;;6.90;49.40
45040;BME280;30778;53.574;7.770;2023-03-20T08:50:58;101693.41;;;6.36;50.33
45040;BME280;30778;53.574;7.770;2023-03-20T08:53:23;101698.84;;;6.95;48.71
45040;BME280;30778;53.574;7.770;2023-03-20T08:55:50;101689.97;;;6.33;50.04
45040;BME280;30778;53.574;7.770;2023-03-20T08:58:17;101690.72;;;6.48;50.29
45040;BME280;30778;53.574;7.770;2023-03-20T09:00:43;101688.06;;;6.50;49.71
45040;BME280;30778;53.574;7.770;2023-03-20T09:03:11;101687.97;;;6.59;49.58
45040;BME280;30778;53.574;7.770;2023-03-20T09:05:39;101672.69;;;6.30;49.54
45040;BME280;30778;53.574;7.770;2023-03-20T09:08:05;101676.53;;;6.77;49.53
45040;BME280;30778;53.574;7.770;2023-03-20T09:10:31;101684.81;;;6.26;50.33
45040;BME280;30778;53.574;7.770;2023-03-20T09:13:00;101686.00;;;6.81;49.66
45040;BME280;30778;53.574;7.770;2023-03-20T09:15:26;101688.59;;;6.84;49.13
45040;BME280;30778;53.574;7.770;2023-03-20T09:17:52;101690.41;;;6.76;49.11
45040;BME280;30778;53.574;7.770;2023-03-20T09:20:18;101685.47;;;7.26;47.91
45040;BME280;30778;53.574;7.770;2023-03-20T09:22:43;101687.53;;;7.01;48.26
45040;BME280;30778;53.574;7.770;2023-03-20T09:25:10;101677.72;;;7.21;47.52
45040;BME280;30778;53.574;7.770;2023-03-20T09:27:37;101684.50;;;7.33;46.71
45040;BME280;30778;53.574;7.770;2023-03-20T09:30:04;101680.75;;;7.56;46.81
45040;BME280;30778;53.574;7.770;2023-03-20T09:32:30;101686.78;;;7.58;46.38
45040;BME280;30778;53.574;7.770;2023-03-20T09:34:55;101690.00;;;7.08;47.20
45040;BME280;30778;53.574;7.770;2023-03-20T09:37:21;101679.84;;;6.91;47.26
45040;BME280;30778;53.574;7.770;2023-03-20T09:39:46;101664.53;;;7.35;46.57
45040;BME280;30778;53.574;7.770;2023-03-20T09:48:29;101666.47;;;8.82;43.18
45040;BME280;30778;53.574;7.770;2023-03-20T09:51:06;101672.00;;;8.15;45.20
45040;BME280;30778;53.574;7.770;2023-03-20T09:56:37;101674.50;;;9.15;42.70
45040;BME280;30778;53.574;7.770;2023-03-20T09:59:04;101675.63;;;8.07;44.32
45040;BME280;30778;53.574;7.770;2023-03-20T10:01:52;101672.16;;;8.08;45.26
45040;BME280;30778;53.574;7.770;2023-03-20T10:04:18;101665.16;;;8.10;45.28
45040;BME280;30778;53.574;7.770;2023-03-20T10:06:45;101664.97;;;7.69;45.50
45040;BME280;30778;53.574;7.770;2023-03-20T10:09:17;101667.03;;;8.00;45.44
45040;BME280;30778;53.574;7.770;2023-03-20T10:15:11;101668.19;;;8.35;43.75
45040;BME280;30778;53.574;7.770;2023-03-20T10:20:23;101652.13;;;8.11;44.21
45040;BME280;30778;53.574;7.770;2023-03-20T10:22:54;101656.47;;;8.11;44.30
45040;BME280;30778;53.574;7.770;2023-03-20T10:25:34;101658.00;;;8.23;44.22
45040;BME280;30778;53.574;7.770;2023-03-20T10:30:48;101665.06;;;8.16;43.97
45040;BME280;30778;53.574;7.770;2023-03-20T10:33:41;101660.59;;;8.72;43.19
45040;BME280;30778;53.574;7.770;2023-03-20T10:41:55;101650.97;;;8.28;42.85
45040;BME280;30778;53.574;7.770;2023-03-20T10:44:35;101650.94;;;8.29;42.99
45040;BME280;30778;53.574;7.770;2023-03-20T10:47:04;101645.13;;;7.61;44.11
45040;BME280;30778;53.574;7.770;2023-03-20T10:49:39;101656.25;;;8.23;43.93
45040;BME280;30778;53.574;7.770;2023-03-20T10:52:15;101650.00;;;7.82;43.57
45040;BME280;30778;53.574;7.770;2023-03-20T10:54:48;101652.31;;;8.01;43.30
45040;BME280;30778;53.574;7.770;2023-03-20T10:57:25;101659.19;;;7.47;43.98
45040;BME280;30778;53.574;7.770;2023-03-20T10:59:55;101658.75;;;7.78;43.51
45040;BME280;30778;53.574;7.770;2023-03-20T11:02:26;101655.31;;;7.74;44.03
45040;BME280;30778;53.574;7.770;2023-03-20T11:04:52;101663.22;;;8.23;43.14
45040;BME280;30778;53.574;7.770;2023-03-20T11:07:27;101651.19;;;7.61;43.76
45040;BME280;30778;53.574;7.770;2023-03-20T11:10:12;101655.72;;;7.45;44.52
45040;BME280;30778;53.574;7.770;2023-03-20T11:12:46;101662.50;;;7.59;44.26
45040;BME280;30778;53.574;7.770;2023-03-20T11:15:14;101661.97;;;7.94;44.14
45040;BME280;30778;53.574;7.770;2023-03-20T11:17:40;101661.59;;;8.15;43.39
45040;BME280;30778;53.574;7.770;2023-03-20T11:20:06;101669.13;;;8.31;43.41
45040;BME280;30778;53.574;7.770;2023-03-20T11:22:33;101658.53;;;7.31;44.86
45040;BME280;30778;53.574;7.770;2023-03-20T11:25:01;101663.53;;;7.47;44.76
45040;BME280;30778;53.574;7.770;2023-03-20T11:27:32;101663.28;;;7.65;44.15
45040;BME280;30778;53.574;7.770;2023-03-20T11:30:01;101658.28;;;7.48;44.33
45040;BME280;30778;53.574;7.770;2023-03-20T11:32:33;101666.72;;;7.67;44.35
45040;BME280;30778;53.574;7.770;2023-03-20T11:37:49;101663.19;;;7.06;45.99
45040;BME280;30778;53.574;7.770;2023-03-20T11:43:12;101654.34;;;7.82;44.49
45040;BME280;30778;53.574;7.770;2023-03-20T11:45:43;101650.34;;;7.61;45.21
45040;BME280;30778;53.574;7.770;2023-03-20T11:48:18;101652.22;;;8.05;44.88
45040;BME280;30778;53.574;7.770;2023-03-20T11:50:55;101638.88;;;8.72;43.57
45040;BME280;30778;53.574;7.770;2023-03-20T11:53:38;101644.78;;;8.33;43.50
45040;BME280;30778;53.574;7.770;2023-03-20T11:56:21;101637.50;;;8.96;42.82
45040;BME280;30778;53.574;7.770;2023-03-20T11:58:50;101637.56;;;9.33;42.26
45040;BME280;30778;53.574;7.770;2023-03-20T12:01:20;101640.34;;;9.63;42.17
45040;BME280;30778;53.574;7.770;2023-03-20T12:04:01;101636.94;;;9.24;42.20
45040;BME280;30778;53.574;7.770;2023-03-20T12:06:52;101630.84;;;9.23;42.27
45040;BME280;30778;53.574;7.770;2023-03-20T12:09:30;101635.56;;;9.45;41.67
45040;BME280;30778;53.574;7.770;2023-03-20T12:14:46;101635.88;;;9.31;41.54
45040;BME280;30778;53.574;7.770;2023-03-20T12:17:30;101636.56;;;9.00;41.49
45040;BME280;30778;53.574;7.770;2023-03-20T12:20:02;101634.41;;;8.32;42.80
45040;BME280;30778;53.574;7.770;2023-03-20T12:22:37;101631.66;;;8.40;43.49
45040;BME280;30778;53.574;7.770;2023-03-20T12:25:23;101637.69;;;7.92;44.96
45040;BME280;30778;53.574;7.770;2023-03-20T12:28:02;101636.88;;;8.38;44.05
45040;BME280;30778;53.574;7.770;2023-03-20T12:30:37;101637.19;;;8.23;43.86
45040;BME280;30778;53.574;7.770;2023-03-20T12:35:48;101636.97;;;8.80;42.79
45040;BME280;30778;53.574;7.770;2023-03-20T12:38:26;101639.44;;;8.41;43.71
45040;BME280;30778;53.574;7.770;2023-03-20T12:41:13;101640.47;;;8.32;43.65
45040;BME280;30778;53.574;7.770;2023-03-20T12:46:40;101636.91;;;7.87;44.96
45040;BME280;30778;53.574;7.770;2023-03-20T12:49:16;101636.09;;;8.34;44.03
45040;BME280;30778;53.574;7.770;2023-03-20T13:02:31;101617.84;;;8.81;44.64
45040;BME280;30778;53.574;7.770;2023-03-20T13:05:11;101625.69;;;8.33;44.64
45040;BME280;30778;53.574;7.770;2023-03-20T13:10:22;101619.88;;;8.65;43.67
45040;BME280;30778;53.574;7.770;2023-03-20T13:20:51;101645.16;;;6.93;51.49
45040;BME280;30778;53.574;7.770;2023-03-20T13:26:42;101638.66;;;7.86;50.10
45040;BME280;30778;53.574;7.770;2023-03-20T13:29:27;101638.28;;;6.88;51.49
45040;BME280;30778;53.574;7.770;2023-03-20T13:40:10;101632.34;;;7.44;52.56
45040;BME280;30778;53.574;7.770;2023-03-20T13:42:51;101638.78;;;7.18;53.67
45040;BME280;30778;53.574;7.770;2023-03-20T13:45:38;101629.56;;;6.94;54.99
45040;BME280;30778;53.574;7.770;2023-03-20T13:56:12;101620.41;;;6.62;56.86
45040;BME280;30778;53.574;7.770;2023-03-20T14:01:54;101610.53;;;6.92;55.51
45040;BME280;30778;53.574;7.770;2023-03-20T14:04:22;101609.59;;;6.96;54.41
45040;BME280;30778;53.574;7.770;2023-03-20T14:06:53;101605.38;;;6.87;55.34
45040;BME280;30778;53.574;7.770;2023-03-20T14:09:36;101600.72;;;6.41;55.94
45040;BME280;30778;53.574;7.770;2023-03-20T14:12:10;101608.47;;;6.46;56.00
45040;BME280;30778;53.574;7.770;2023-03-20T14:17:19;101590.00;;;6.72;54.03
45040;BME280;30778;53.574;7.770;2023-03-20T14:19:46;101605.38;;;6.07;55.87
45040;BME280;30778;53.574;7.770;2023-03-20T14:22:17;101611.69;;;5.78;55.73
45040;BME280;30778;53.574;7.770;2023-03-20T14:24:53;101603.69;;;6.83;54.22
45040;BME280;30778;53.574;7.770;2023-03-20T14:27:21;101610.16;;;6.50;54.89
45040;BME280;30778;53.574;7.770;2023-03-20T14:29:46;101605.19;;;6.25;55.61
45040;BME280;30778;53.574;7.770;2023-03-20T14:35:19;101605.19;;;7.03;53.18
45040;BME280;30778;53.574;7.770;2023-03-20T14:40:42;101596.66;;;6.13;54.61
45040;BME280;30778;53.574;7.770;2023-03-20T14:43:40;101602.63;;;6.28;54.28
45040;BME280;30778;53.574;7.770;2023-03-20T14:51:47;101604.84;;;6.61;55.27
45040;BME280;30778;53.574;7.770;2023-03-20T14:56:47;101600.31;;;6.78;54.16
45040;BME280;30778;53.574;7.770;2023-03-20T14:59:15;101599.94;;;6.35;55.62
45040;BME280;30778;53.574;7.770;2023-03-20T15:04:26;101599.53;;;6.68;54.96
45040;BME280;30778;53.574;7.770;2023-03-20T15:09:48;101596.94;;;6.70;54.91
45040;BME280;30778;53.574;7.770;2023-03-20T15:12:20;101592.69;;;6.64;55.55
45040;BME280;30778;53.574;7.770;2023-03-20T15:15:01;101590.69;;;6.85;54.31
45040;BME280;30778;53.574;7.770;2023-03-20T15:17:37;101595.84;;;6.11;56.48
45040;BME280;30778;53.574;7.770;2023-03-20T15:20:16;101601.91;;;6.09;56.83
45040;BME280;30778;53.574;7.770;2023-03-20T15:22:56;101593.59;;;5.71;57.74
45040;BME280;30778;53.574;7.770;2023-03-20T15:25:28;101591.50;;;6.11;57.22
45040;BME280;30778;53.574;7.770;2023-03-20T15:27:55;101591.34;;;6.29;56.04
45040;BME280;30778;53.574;7.770;2023-03-20T15:30:21;101595.69;;;6.29;56.66
45040;BME280;30778;53.574;7.770;2023-03-20T15:32:52;101583.50;;;6.34;55.91
45040;BME280;30778;53.574;7.770;2023-03-20T15:35:20;101581.28;;;6.75;55.58
45040;BME280;30778;53.574;7.770;2023-03-20T15:37:49;101580.63;;;6.57;56.08